sensor_id;sensor_type;location;lat;lon;timestamp;temperature;humidity
68480;DHT22;55469;48.934;12.050;2023-07-20T00:00:07;26.40;55.00
68480;DHT22;55469;48.934;12.050;2023-07-20T00:05:45;26.40;55.20
68480;DHT22;55469;48.934;12.050;2023-07-20T00:08:11;26.30;54.80
68480;DHT22;55469;48.934;12.050;2023-07-20T00:10:36;26.30;55.10
68480;DHT22;55469;48.934;12.050;2023-07-20T00:13:02;26.20;55.20
68480;DHT22;55469;48.934;12.050;2023-07-20T00:15:34;26.20;55.30
68480;DHT22;55469;48.934;12.050;2023-07-20T00:18:00;26.20;55.40
68480;DHT22;55469;48.934;12.050;2023-07-20T00:24:07;26.20;55.40
68480;DHT22;55469;48.934;12.050;2023-07-20T00:26:32;26.10;55.00
68480;DHT22;55469;48.934;12.050;2023-07-20T00:28:58;26.10;55.30
68480;DHT22;55469;48.934;12.050;2023-07-20T00:31:24;26.10;55.30
68480;DHT22;55469;48.934;12.050;2023-07-20T00:33:49;26.10;55.60
68480;DHT22;55469;48.934;12.050;2023-07-20T00:36:15;26.10;55.50
68480;DHT22;55469;48.934;12.050;2023-07-20T00:38:42;26.10;55.50
68480;DHT22;55469;48.934;12.050;2023-07-20T00:44:48;26.00;55.50
68480;DHT22;55469;48.934;12.050;2023-07-20T00:47:14;26.00;55.60
68480;DHT22;55469;48.934;12.050;2023-07-20T00:49:40;25.90;55.80
68480;DHT22;55469;48.934;12.050;2023-07-20T00:52:07;25.90;55.90
68480;DHT22;55469;48.934;12.050;2023-07-20T00:54:34;25.90;55.80
68480;DHT22;55469;48.934;12.050;2023-07-20T00:57:01;25.90;56.10
68480;DHT22;55469;48.934;12.050;2023-07-20T00:59:27;25.90;56.10
68480;DHT22;55469;48.934;12.050;2023-07-20T01:01:53;25.80;56.10
68480;DHT22;55469;48.934;12.050;2023-07-20T01:04:19;25.80;56.10
68480;DHT22;55469;48.934;12.050;2023-07-20T01:07:19;25.70;56.10
68480;DHT22;55469;48.934;12.050;2023-07-20T01:13:11;25.80;56.30
68480;DHT22;55469;48.934;12.050;2023-07-20T01:15:39;25.70;56.50
68480;DHT22;55469;48.934;12.050;2023-07-20T01:18:05;25.70;56.10
68480;DHT22;55469;48.934;12.050;2023-07-20T01:20:33;25.70;56.70
68480;DHT22;55469;48.934;12.050;2023-07-20T01:23:01;25.70;56.70
68480;DHT22;55469;48.934;12.050;2023-07-20T01:26:08;25.70;56.80
68480;DHT22;55469;48.934;12.050;2023-07-20T01:29:28;25.60;56.70
68480;DHT22;55469;48.934;12.050;2023-07-20T01:32:01;25.60;56.70
68480;DHT22;55469;48.934;12.050;2023-07-20T01:34:29;25.60;56.80
68480;DHT22;55469;48.934;12.050;2023-07-20T01:36:56;25.60;57.10
68480;DHT22;55469;48.934;12.050;2023-07-20T01:39:23;25.50;56.90
68480;DHT22;55469;48.934;12.050;2023-07-20T01:41:49;25.50;56.90
68480;DHT22;55469;48.934;12.050;2023-07-20T01:44:15;25.50;57.20
68480;DHT22;55469;48.934;12.050;2023-07-20T01:46:41;25.50;57.40
68480;DHT22;55469;48.934;12.050;2023-07-20T01:49:07;25.50;57.30
68480;DHT22;55469;48.934;12.050;2023-07-20T01:51:32;25.50;57.20
68480;DHT22;55469;48.934;12.050;2023-07-20T01:53:58;25.50;57.60
68480;DHT22;55469;48.934;12.050;2023-07-20T01:56:25;25.40;57.40
68480;DHT22;55469;48.934;12.050;2023-07-20T01:58:50;25.40;57.40
68480;DHT22;55469;48.934;12.050;2023-07-20T02:01:16;25.40;57.20
68480;DHT22;55469;48.934;12.050;2023-07-20T02:03:42;25.30;57.50
68480;DHT22;55469;48.934;12.050;2023-07-20T02:06:07;25.30;57.40
68480;DHT22;55469;48.934;12.050;2023-07-20T02:12:14;25.20;57.50
68480;DHT22;55469;48.934;12.050;2023-07-20T02:14:40;25.20;57.40
68480;DHT22;55469;48.934;12.050;2023-07-20T02:17:05;25.10;57.50
68480;DHT22;55469;48.934;12.050;2023-07-20T02:19:31;25.10;57.50
68480;DHT22;55469;48.934;12.050;2023-07-20T02:25:38;25.10;57.80
68480;DHT22;55469;48.934;12.050;2023-07-20T02:28:07;25.10;57.70
68480;DHT22;55469;48.934;12.050;2023-07-20T02:34:14;25.00;57.80
68480;DHT22;55469;48.934;12.050;2023-07-20T02:36:39;25.00;57.80
68480;DHT22;55469;48.934;12.050;2023-07-20T02:39:08;25.00;57.80
68480;DHT22;55469;48.934;12.050;2023-07-20T02:45:14;24.80;57.90
68480;DHT22;55469;48.934;12.050;2023-07-20T02:47:40;24.80;58.00
68480;DHT22;55469;48.934;12.050;2023-07-20T02:50:09;24.80;58.00
68480;DHT22;55469;48.934;12.050;2023-07-20T02:52:34;24.80;58.10
68480;DHT22;55469;48.934;12.050;2023-07-20T02:55:00;24.80;58.20
68480;DHT22;55469;48.934;12.050;2023-07-20T02:57:26;24.70;58.10
68480;DHT22;55469;48.934;12.050;2023-07-20T02:59:52;24.70;58.00
68480;DHT22;55469;48.934;12.050;2023-07-20T03:02:18;24.60;58.10
68480;DHT22;55469;48.934;12.050;2023-07-20T03:04:43;24.60;58.00
68480;DHT22;55469;48.934;12.050;2023-07-20T03:07:09;24.60;58.20
68480;DHT22;55469;48.934;12.050;2023-07-20T03:09:35;24.60;58.30
68480;DHT22;55469;48.934;12.050;2023-07-20T03:12:01;24.60;58.10
68480;DHT22;55469;48.934;12.050;2023-07-20T03:14:26;24.50;58.30
68480;DHT22;55469;48.934;12.050;2023-07-20T03:16:52;24.50;58.10
68480;DHT22;55469;48.934;12.050;2023-07-20T03:19:18;24.50;58.10
68480;DHT22;55469;48.934;12.050;2023-07-20T03:21:43;24.50;58.40
68480;DHT22;55469;48.934;12.050;2023-07-20T03:24:09;24.50;58.50
68480;DHT22;55469;48.934;12.050;2023-07-20T03:30:16;24.40;58.40
68480;DHT22;55469;48.934;12.050;2023-07-20T03:32:42;24.40;58.40
68480;DHT22;55469;48.934;12.050;2023-07-20T03:35:08;24.40;58.50
68480;DHT22;55469;48.934;12.050;2023-07-20T03:37:34;24.40;58.40
68480;DHT22;55469;48.934;12.050;2023-07-20T03:40:01;24.40;58.60
68480;DHT22;55469;48.934;12.050;2023-07-20T03:42:27;24.30;58.60
68480;DHT22;55469;48.934;12.050;2023-07-20T03:44:53;24.30;58.50
68480;DHT22;55469;48.934;12.050;2023-07-20T03:47:18;24.30;58.80
68480;DHT22;55469;48.934;12.050;2023-07-20T03:49:44;24.20;58.50
68480;DHT22;55469;48.934;12.050;2023-07-20T03:52:10;24.30;58.70
68480;DHT22;55469;48.934;12.050;2023-07-20T03:57:52;24.20;58.80
68480;DHT22;55469;48.934;12.050;2023-07-20T04:00:18;24.20;59.00
68480;DHT22;55469;48.934;12.050;2023-07-20T04:02:43;24.20;58.70
68480;DHT22;55469;48.934;12.050;2023-07-20T04:05:10;24.20;58.90
68480;DHT22;55469;48.934;12.050;2023-07-20T04:07:36;24.20;58.70
68480;DHT22;55469;48.934;12.050;2023-07-20T04:10:24;24.20;58.90
68480;DHT22;55469;48.934;12.050;2023-07-20T04:12:50;24.10;59.20
68480;DHT22;55469;48.934;12.050;2023-07-20T04:15:16;24.10;59.10
68480;DHT22;55469;48.934;12.050;2023-07-20T04:17:41;24.10;60.10
68480;DHT22;55469;48.934;12.050;2023-07-20T04:20:08;24.10;59.10
68480;DHT22;55469;48.934;12.050;2023-07-20T04:22:34;24.10;59.10
68480;DHT22;55469;48.934;12.050;2023-07-20T04:25:00;24.10;59.10
68480;DHT22;55469;48.934;12.050;2023-07-20T04:27:25;24.00;59.00
68480;DHT22;55469;48.934;12.050;2023-07-20T04:29:52;24.00;59.00
68480;DHT22;55469;48.934;12.050;2023-07-20T04:32:18;24.00;59.10
68480;DHT22;55469;48.934;12.050;2023-07-20T04:34:44;24.00;59.00
68480;DHT22;55469;48.934;12.050;2023-07-20T04:37:23;24.00;59.10
68480;DHT22;55469;48.934;12.050;2023-07-20T04:39:49;24.00;59.00
68480;DHT22;55469;48.934;12.050;2023-07-20T04:42:15;23.90;59.10
68480;DHT22;55469;48.934;12.050;2023-07-20T04:44:41;24.00;59.10
68480;DHT22;55469;48.934;12.050;2023-07-20T04:47:07;23.90;59.00
68480;DHT22;55469;48.934;12.050;2023-07-20T04:49:34;23.90;59.10
68480;DHT22;55469;48.934;12.050;2023-07-20T04:51:59;23.90;59.00
68480;DHT22;55469;48.934;12.050;2023-07-20T04:54:25;23.90;59.10
68480;DHT22;55469;48.934;12.050;2023-07-20T04:56:53;23.90;59.00
68480;DHT22;55469;48.934;12.050;2023-07-20T04:59:19;23.90;59.00
68480;DHT22;55469;48.934;12.050;2023-07-20T05:01:44;23.90;59.10
68480;DHT22;55469;48.934;12.050;2023-07-20T05:04:10;23.90;59.10
68480;DHT22;55469;48.934;12.050;2023-07-20T05:06:36;23.90;59.00
68480;DHT22;55469;48.934;12.050;2023-07-20T05:09:01;23.90;59.00
68480;DHT22;55469;48.934;12.050;2023-07-20T05:11:27;23.90;59.00
68480;DHT22;55469;48.934;12.050;2023-07-20T05:13:53;23.90;59.00
68480;DHT22;55469;48.934;12.050;2023-07-20T05:16:19;23.90;58.80
68480;DHT22;55469;48.934;12.050;2023-07-20T05:18:44;23.90;58.70
68480;DHT22;55469;48.934;12.050;2023-07-20T05:21:10;23.90;58.80
68480;DHT22;55469;48.934;12.050;2023-07-20T05:23:36;23.80;58.60
68480;DHT22;55469;48.934;12.050;2023-07-20T05:26:02;23.90;58.40
68480;DHT22;55469;48.934;12.050;2023-07-20T05:28:27;23.90;58.50
68480;DHT22;55469;48.934;12.050;2023-07-20T05:30:54;23.90;58.50
68480;DHT22;55469;48.934;12.050;2023-07-20T05:33:20;23.90;58.50
68480;DHT22;55469;48.934;12.050;2023-07-20T05:35:46;23.80;58.30
68480;DHT22;55469;48.934;12.050;2023-07-20T05:38:12;23.90;58.40
68480;DHT22;55469;48.934;12.050;2023-07-20T05:40:39;23.80;58.50
68480;DHT22;55469;48.934;12.050;2023-07-20T05:43:06;23.80;58.50
68480;DHT22;55469;48.934;12.050;2023-07-20T05:45:32;23.80;58.50
68480;DHT22;55469;48.934;12.050;2023-07-20T05:47:57;23.80;58.70
68480;DHT22;55469;48.934;12.050;2023-07-20T05:50:23;23.80;58.40
68480;DHT22;55469;48.934;12.050;2023-07-20T05:52:49;23.80;58.50
68480;DHT22;55469;48.934;12.050;2023-07-20T05:55:17;23.80;58.40
68480;DHT22;55469;48.934;12.050;2023-07-20T05:57:43;23.80;58.50
68480;DHT22;55469;48.934;12.050;2023-07-20T06:00:09;23.80;58.40
68480;DHT22;55469;48.934;12.050;2023-07-20T06:02:35;23.80;58.40
68480;DHT22;55469;48.934;12.050;2023-07-20T06:05:01;23.80;58.50
68480;DHT22;55469;48.934;12.050;2023-07-20T06:07:27;23.80;58.40
68480;DHT22;55469;48.934;12.050;2023-07-20T06:13:33;23.80;58.60
68480;DHT22;55469;48.934;12.050;2023-07-20T06:15:59;23.80;58.40
68480;DHT22;55469;48.934;12.050;2023-07-20T06:18:25;23.80;58.60
68480;DHT22;55469;48.934;12.050;2023-07-20T06:20:51;23.80;58.60
68480;DHT22;55469;48.934;12.050;2023-07-20T06:23:20;23.80;58.70
68480;DHT22;55469;48.934;12.050;2023-07-20T06:25:46;23.80;58.90
68480;DHT22;55469;48.934;12.050;2023-07-20T06:28:13;23.80;58.90
68480;DHT22;55469;48.934;12.050;2023-07-20T06:30:39;23.70;58.60
68480;DHT22;55469;48.934;12.050;2023-07-20T06:33:05;23.70;58.70
68480;DHT22;55469;48.934;12.050;2023-07-20T06:35:32;23.80;58.80
68480;DHT22;55469;48.934;12.050;2023-07-20T06:37:57;23.70;58.90
68480;DHT22;55469;48.934;12.050;2023-07-20T06:40:26;23.70;58.80
68480;DHT22;55469;48.934;12.050;2023-07-20T06:42:52;23.70;58.80
68480;DHT22;55469;48.934;12.050;2023-07-20T06:45:18;23.80;58.80
68480;DHT22;55469;48.934;12.050;2023-07-20T06:47:43;23.70;58.80
68480;DHT22;55469;48.934;12.050;2023-07-20T06:50:10;23.70;58.80
68480;DHT22;55469;48.934;12.050;2023-07-20T06:52:36;23.70;58.80
68480;DHT22;55469;48.934;12.050;2023-07-20T06:55:02;23.70;58.90
68480;DHT22;55469;48.934;12.050;2023-07-20T06:57:28;23.70;58.90
68480;DHT22;55469;48.934;12.050;2023-07-20T06:59:54;23.70;59.90
68480;DHT22;55469;48.934;12.050;2023-07-20T07:02:20;23.70;58.90
68480;DHT22;55469;48.934;12.050;2023-07-20T07:04:46;23.70;58.90
68480;DHT22;55469;48.934;12.050;2023-07-20T07:07:15;23.70;58.90
68480;DHT22;55469;48.934;12.050;2023-07-20T07:09:42;23.70;58.90
68480;DHT22;55469;48.934;12.050;2023-07-20T07:12:08;23.70;58.90
68480;DHT22;55469;48.934;12.050;2023-07-20T07:14:34;23.70;58.90
68480;DHT22;55469;48.934;12.050;2023-07-20T07:17:00;23.70;58.90
68480;DHT22;55469;48.934;12.050;2023-07-20T07:19:26;23.70;58.90
68480;DHT22;55469;48.934;12.050;2023-07-20T07:21:53;23.70;58.90
68480;DHT22;55469;48.934;12.050;2023-07-20T07:24:19;23.70;58.90
68480;DHT22;55469;48.934;12.050;2023-07-20T07:26:45;23.70;58.90
68480;DHT22;55469;48.934;12.050;2023-07-20T07:29:11;23.70;59.00
68480;DHT22;55469;48.934;12.050;2023-07-20T07:31:37;23.70;59.10
68480;DHT22;55469;48.934;12.050;2023-07-20T07:34:04;23.70;59.20
68480;DHT22;55469;48.934;12.050;2023-07-20T07:36:31;23.70;59.10
68480;DHT22;55469;48.934;12.050;2023-07-20T07:38:58;23.70;59.90
68480;DHT22;55469;48.934;12.050;2023-07-20T07:41:23;23.70;58.90
68480;DHT22;55469;48.934;12.050;2023-07-20T07:43:49;23.70;59.10
68480;DHT22;55469;48.934;12.050;2023-07-20T07:46:15;23.70;59.00
68480;DHT22;55469;48.934;12.050;2023-07-20T07:48:42;23.70;59.00
68480;DHT22;55469;48.934;12.050;2023-07-20T07:51:09;23.70;58.90
68480;DHT22;55469;48.934;12.050;2023-07-20T07:53:35;23.70;58.90
68480;DHT22;55469;48.934;12.050;2023-07-20T07:56:04;23.70;58.90
68480;DHT22;55469;48.934;12.050;2023-07-20T07:58:32;23.70;58.90
68480;DHT22;55469;48.934;12.050;2023-07-20T08:00:58;23.70;59.00
68480;DHT22;55469;48.934;12.050;2023-07-20T08:03:24;23.70;58.90
68480;DHT22;55469;48.934;12.050;2023-07-20T08:05:54;23.70;58.90
68480;DHT22;55469;48.934;12.050;2023-07-20T08:08:25;23.70;59.90
68480;DHT22;55469;48.934;12.050;2023-07-20T08:10:53;23.70;58.90
68480;DHT22;55469;48.934;12.050;2023-07-20T08:13:20;23.70;58.90
68480;DHT22;55469;48.934;12.050;2023-07-20T08:15:49;23.70;58.90
68480;DHT22;55469;48.934;12.050;2023-07-20T08:18:17;23.70;58.90
68480;DHT22;55469;48.934;12.050;2023-07-20T08:20:46;23.70;58.90
68480;DHT22;55469;48.934;12.050;2023-07-20T08:23:12;23.70;59.20
68480;DHT22;55469;48.934;12.050;2023-07-20T08:25:39;23.70;59.10
68480;DHT22;55469;48.934;12.050;2023-07-20T08:28:13;23.70;58.90
68480;DHT22;55469;48.934;12.050;2023-07-20T08:30:44;23.80;58.90
68480;DHT22;55469;48.934;12.050;2023-07-20T08:33:13;23.70;58.90
68480;DHT22;55469;48.934;12.050;2023-07-20T08:35:40;23.70;58.90
68480;DHT22;55469;48.934;12.050;2023-07-20T08:38:05;23.70;58.90
68480;DHT22;55469;48.934;12.050;2023-07-20T08:40:34;23.70;58.90
68480;DHT22;55469;48.934;12.050;2023-07-20T08:43:05;23.70;58.90
68480;DHT22;55469;48.934;12.050;2023-07-20T08:45:33;23.70;58.80
68480;DHT22;55469;48.934;12.050;2023-07-20T08:48:01;23.70;58.90
68480;DHT22;55469;48.934;12.050;2023-07-20T08:50:30;23.70;58.90
68480;DHT22;55469;48.934;12.050;2023-07-20T08:52:57;23.70;58.90
68480;DHT22;55469;48.934;12.050;2023-07-20T08:55:25;23.70;58.70
68480;DHT22;55469;48.934;12.050;2023-07-20T08:57:54;23.70;58.40
68480;DHT22;55469;48.934;12.050;2023-07-20T09:00:21;23.70;58.50
68480;DHT22;55469;48.934;12.050;2023-07-20T09:02:50;23.70;58.50
68480;DHT22;55469;48.934;12.050;2023-07-20T09:05:17;23.70;57.90
68480;DHT22;55469;48.934;12.050;2023-07-20T09:07:44;23.70;58.00
68480;DHT22;55469;48.934;12.050;2023-07-20T09:10:10;23.80;58.00
68480;DHT22;55469;48.934;12.050;2023-07-20T09:12:38;23.80;57.70
68480;DHT22;55469;48.934;12.050;2023-07-20T09:15:06;23.80;58.20
68480;DHT22;55469;48.934;12.050;2023-07-20T09:17:33;23.80;57.90
68480;DHT22;55469;48.934;12.050;2023-07-20T09:19:59;23.80;57.40
68480;DHT22;55469;48.934;12.050;2023-07-20T09:22:31;23.80;57.40
68480;DHT22;55469;48.934;12.050;2023-07-20T09:24:58;23.80;57.30
68480;DHT22;55469;48.934;12.050;2023-07-20T09:27:41;23.70;57.30
68480;DHT22;55469;48.934;12.050;2023-07-20T09:30:09;23.80;57.10
68480;DHT22;55469;48.934;12.050;2023-07-20T09:32:42;23.80;57.00
68480;DHT22;55469;48.934;12.050;2023-07-20T09:35:16;23.80;56.80
68480;DHT22;55469;48.934;12.050;2023-07-20T09:40:20;23.80;56.60
68480;DHT22;55469;48.934;12.050;2023-07-20T09:42:47;23.80;56.70
68480;DHT22;55469;48.934;12.050;2023-07-20T09:45:13;23.80;56.50
68480;DHT22;55469;48.934;12.050;2023-07-20T09:47:40;23.80;56.90
68480;DHT22;55469;48.934;12.050;2023-07-20T09:50:07;23.90;56.60
68480;DHT22;55469;48.934;12.050;2023-07-20T09:52:40;23.90;56.60
68480;DHT22;55469;48.934;12.050;2023-07-20T09:55:07;23.90;56.40
68480;DHT22;55469;48.934;12.050;2023-07-20T09:57:34;23.90;56.40
68480;DHT22;55469;48.934;12.050;2023-07-20T10:00:03;23.90;56.20
68480;DHT22;55469;48.934;12.050;2023-07-20T10:02:37;23.90;56.40
68480;DHT22;55469;48.934;12.050;2023-07-20T10:05:08;23.90;56.30
68480;DHT22;55469;48.934;12.050;2023-07-20T10:07:36;23.90;56.30
68480;DHT22;55469;48.934;12.050;2023-07-20T10:10:09;23.90;56.10
68480;DHT22;55469;48.934;12.050;2023-07-20T10:12:37;23.90;56.50
68480;DHT22;55469;48.934;12.050;2023-07-20T10:15:11;23.90;55.90
68480;DHT22;55469;48.934;12.050;2023-07-20T10:17:57;23.90;56.00
68480;DHT22;55469;48.934;12.050;2023-07-20T10:20:26;23.90;55.90
68480;DHT22;55469;48.934;12.050;2023-07-20T10:22:53;23.90;55.90
68480;DHT22;55469;48.934;12.050;2023-07-20T10:25:24;24.00;55.70
68480;DHT22;55469;48.934;12.050;2023-07-20T10:27:50;24.00;55.90
68480;DHT22;55469;48.934;12.050;2023-07-20T10:30:17;24.00;55.50
68480;DHT22;55469;48.934;12.050;2023-07-20T10:32:45;24.00;55.70
68480;DHT22;55469;48.934;12.050;2023-07-20T10:35:15;24.00;55.50
68480;DHT22;55469;48.934;12.050;2023-07-20T10:37:52;24.00;55.60
68480;DHT22;55469;48.934;12.050;2023-07-20T10:40:30;24.00;55.50
68480;DHT22;55469;48.934;12.050;2023-07-20T10:43:07;24.00;55.30
68480;DHT22;55469;48.934;12.050;2023-07-20T10:45:41;24.00;55.40
68480;DHT22;55469;48.934;12.050;2023-07-20T10:48:25;24.00;55.20
68480;DHT22;55469;48.934;12.050;2023-07-20T10:51:14;24.10;55.40
68480;DHT22;55469;48.934;12.050;2023-07-20T10:53:45;24.10;55.30
68480;DHT22;55469;48.934;12.050;2023-07-20T10:56:19;24.10;55.20
68480;DHT22;55469;48.934;12.050;2023-07-20T10:58:45;24.10;55.30
68480;DHT22;55469;48.934;12.050;2023-07-20T11:01:16;24.10;55.00
68480;DHT22;55469;48.934;12.050;2023-07-20T11:03:43;24.10;54.90
68480;DHT22;55469;48.934;12.050;2023-07-20T11:09:17;24.10;55.00
68480;DHT22;55469;48.934;12.050;2023-07-20T11:11:46;24.10;54.60
68480;DHT22;55469;48.934;12.050;2023-07-20T11:14:25;24.10;54.90
68480;DHT22;55469;48.934;12.050;2023-07-20T11:16:52;24.20;54.40
68480;DHT22;55469;48.934;12.050;2023-07-20T11:19:25;24.20;54.00
68480;DHT22;55469;48.934;12.050;2023-07-20T11:21:56;24.20;54.10
68480;DHT22;55469;48.934;12.050;2023-07-20T11:24:23;24.20;54.20
68480;DHT22;55469;48.934;12.050;2023-07-20T11:26:50;24.20;54.20
68480;DHT22;55469;48.934;12.050;2023-07-20T11:29:23;24.20;54.50
68480;DHT22;55469;48.934;12.050;2023-07-20T11:31:50;24.30;54.30
68480;DHT22;55469;48.934;12.050;2023-07-20T11:34:22;24.20;54.20
68480;DHT22;55469;48.934;12.050;2023-07-20T11:36:49;24.20;54.30
68480;DHT22;55469;48.934;12.050;2023-07-20T11:39:17;24.30;54.10
68480;DHT22;55469;48.934;12.050;2023-07-20T11:41:49;24.30;54.00
68480;DHT22;55469;48.934;12.050;2023-07-20T11:44:17;24.30;54.60
68480;DHT22;55469;48.934;12.050;2023-07-20T11:46:43;24.30;53.70
68480;DHT22;55469;48.934;12.050;2023-07-20T11:49:10;24.40;53.70
68480;DHT22;55469;48.934;12.050;2023-07-20T11:51:36;24.40;54.60
68480;DHT22;55469;48.934;12.050;2023-07-20T11:54:06;24.40;53.90
68480;DHT22;55469;48.934;12.050;2023-07-20T11:56:33;24.40;53.80
68480;DHT22;55469;48.934;12.050;2023-07-20T11:59:00;24.40;53.70
68480;DHT22;55469;48.934;12.050;2023-07-20T12:01:28;24.40;53.70
68480;DHT22;55469;48.934;12.050;2023-07-20T12:03:59;24.40;53.70
68480;DHT22;55469;48.934;12.050;2023-07-20T12:06:25;24.40;53.50
68480;DHT22;55469;48.934;12.050;2023-07-20T12:08:57;24.50;53.80
68480;DHT22;55469;48.934;12.050;2023-07-20T12:11:38;24.50;54.00
68480;DHT22;55469;48.934;12.050;2023-07-20T12:14:06;24.50;53.60
68480;DHT22;55469;48.934;12.050;2023-07-20T12:16:34;24.50;54.00
68480;DHT22;55469;48.934;12.050;2023-07-20T12:19:12;24.60;53.60
68480;DHT22;55469;48.934;12.050;2023-07-20T12:21:39;24.60;53.40
68480;DHT22;55469;48.934;12.050;2023-07-20T12:24:07;24.70;53.40
68480;DHT22;55469;48.934;12.050;2023-07-20T12:26:34;24.70;53.40
68480;DHT22;55469;48.934;12.050;2023-07-20T12:29:01;24.70;53.60
68480;DHT22;55469;48.934;12.050;2023-07-20T12:31:27;24.70;53.50
68480;DHT22;55469;48.934;12.050;2023-07-20T12:33:53;24.70;53.70
68480;DHT22;55469;48.934;12.050;2023-07-20T12:36:22;24.70;53.80
68480;DHT22;55469;48.934;12.050;2023-07-20T12:38:48;24.80;53.60
68480;DHT22;55469;48.934;12.050;2023-07-20T12:41:14;24.80;53.50
68480;DHT22;55469;48.934;12.050;2023-07-20T12:43:41;24.80;53.20
68480;DHT22;55469;48.934;12.050;2023-07-20T12:46:07;24.80;53.00
68480;DHT22;55469;48.934;12.050;2023-07-20T12:48:34;24.80;52.80
68480;DHT22;55469;48.934;12.050;2023-07-20T12:51:02;24.90;52.70
68480;DHT22;55469;48.934;12.050;2023-07-20T12:53:29;24.90;52.70
68480;DHT22;55469;48.934;12.050;2023-07-20T12:55:56;24.90;52.80
68480;DHT22;55469;48.934;12.050;2023-07-20T12:58:21;24.90;52.70
68480;DHT22;55469;48.934;12.050;2023-07-20T13:00:47;25.00;52.70
68480;DHT22;55469;48.934;12.050;2023-07-20T13:03:13;25.00;52.80
68480;DHT22;55469;48.934;12.050;2023-07-20T13:05:38;25.00;52.60
68480;DHT22;55469;48.934;12.050;2023-07-20T13:08:04;25.00;52.50
68480;DHT22;55469;48.934;12.050;2023-07-20T13:10:31;25.10;52.60
68480;DHT22;55469;48.934;12.050;2023-07-20T13:12:57;25.10;52.50
68480;DHT22;55469;48.934;12.050;2023-07-20T13:15:24;25.10;52.40
68480;DHT22;55469;48.934;12.050;2023-07-20T13:17:56;25.10;52.40
68480;DHT22;55469;48.934;12.050;2023-07-20T13:20:22;25.20;52.20
68480;DHT22;55469;48.934;12.050;2023-07-20T13:22:47;25.20;53.30
68480;DHT22;55469;48.934;12.050;2023-07-20T13:25:14;25.20;52.40
68480;DHT22;55469;48.934;12.050;2023-07-20T13:27:39;25.30;52.20
68480;DHT22;55469;48.934;12.050;2023-07-20T13:30:06;25.30;52.30
68480;DHT22;55469;48.934;12.050;2023-07-20T13:32:33;25.40;52.20
68480;DHT22;55469;48.934;12.050;2023-07-20T13:35:00;25.40;52.00
68480;DHT22;55469;48.934;12.050;2023-07-20T13:37:26;25.40;52.20
68480;DHT22;55469;48.934;12.050;2023-07-20T13:39:52;25.50;52.20
68480;DHT22;55469;48.934;12.050;2023-07-20T13:42:18;25.50;51.80
68480;DHT22;55469;48.934;12.050;2023-07-20T13:44:43;25.50;51.80
68480;DHT22;55469;48.934;12.050;2023-07-20T13:47:09;25.50;51.50
68480;DHT22;55469;48.934;12.050;2023-07-20T13:49:35;25.50;51.90
68480;DHT22;55469;48.934;12.050;2023-07-20T13:52:01;25.50;51.80
68480;DHT22;55469;48.934;12.050;2023-07-20T13:54:26;25.60;51.70
68480;DHT22;55469;48.934;12.050;2023-07-20T13:56:52;25.60;51.90
68480;DHT22;55469;48.934;12.050;2023-07-20T13:59:18;25.60;52.20
68480;DHT22;55469;48.934;12.050;2023-07-20T14:01:44;25.60;52.10
68480;DHT22;55469;48.934;12.050;2023-07-20T14:04:10;25.70;51.90
68480;DHT22;55469;48.934;12.050;2023-07-20T14:06:35;25.70;52.30
68480;DHT22;55469;48.934;12.050;2023-07-20T14:09:02;25.80;51.50
68480;DHT22;55469;48.934;12.050;2023-07-20T14:11:28;25.80;51.60
68480;DHT22;55469;48.934;12.050;2023-07-20T14:13:54;25.90;51.40
68480;DHT22;55469;48.934;12.050;2023-07-20T14:16:23;25.90;51.10
68480;DHT22;55469;48.934;12.050;2023-07-20T14:18:49;25.90;51.40
68480;DHT22;55469;48.934;12.050;2023-07-20T14:21:16;26.00;51.10
68480;DHT22;55469;48.934;12.050;2023-07-20T14:23:48;26.00;50.40
68480;DHT22;55469;48.934;12.050;2023-07-20T14:26:18;26.00;50.60
68480;DHT22;55469;48.934;12.050;2023-07-20T14:28:44;26.00;50.20
68480;DHT22;55469;48.934;12.050;2023-07-20T14:31:09;26.10;50.30
68480;DHT22;55469;48.934;12.050;2023-07-20T14:33:35;26.20;50.90
68480;DHT22;55469;48.934;12.050;2023-07-20T14:36:02;26.20;50.70
68480;DHT22;55469;48.934;12.050;2023-07-20T14:38:31;26.20;50.60
68480;DHT22;55469;48.934;12.050;2023-07-20T14:40:57;26.30;50.50
68480;DHT22;55469;48.934;12.050;2023-07-20T14:43:23;26.30;50.30
68480;DHT22;55469;48.934;12.050;2023-07-20T14:45:48;26.40;50.10
68480;DHT22;55469;48.934;12.050;2023-07-20T14:48:14;26.40;49.40
68480;DHT22;55469;48.934;12.050;2023-07-20T14:50:40;26.50;49.50
68480;DHT22;55469;48.934;12.050;2023-07-20T14:53:06;26.50;48.70
68480;DHT22;55469;48.934;12.050;2023-07-20T14:55:33;26.50;50.10
68480;DHT22;55469;48.934;12.050;2023-07-20T14:57:59;26.50;50.00
68480;DHT22;55469;48.934;12.050;2023-07-20T15:00:24;26.50;50.00
68480;DHT22;55469;48.934;12.050;2023-07-20T15:02:50;26.50;49.80
68480;DHT22;55469;48.934;12.050;2023-07-20T15:05:21;26.50;50.20
68480;DHT22;55469;48.934;12.050;2023-07-20T15:07:48;26.50;49.90
68480;DHT22;55469;48.934;12.050;2023-07-20T15:10:16;26.50;50.60
68480;DHT22;55469;48.934;12.050;2023-07-20T15:12:42;26.50;50.80
68480;DHT22;55469;48.934;12.050;2023-07-20T15:15:09;26.50;50.60
68480;DHT22;55469;48.934;12.050;2023-07-20T15:17:37;26.50;51.00
68480;DHT22;55469;48.934;12.050;2023-07-20T15:20:04;26.60;50.40
68480;DHT22;55469;48.934;12.050;2023-07-20T15:22:31;26.50;50.60
68480;DHT22;55469;48.934;12.050;2023-07-20T15:24:59;26.60;50.70
68480;DHT22;55469;48.934;12.050;2023-07-20T15:27:26;26.60;50.60
68480;DHT22;55469;48.934;12.050;2023-07-20T15:29:51;26.70;50.60
68480;DHT22;55469;48.934;12.050;2023-07-20T15:32:20;26.70;49.40
68480;DHT22;55469;48.934;12.050;2023-07-20T15:34:47;26.70;48.40
68480;DHT22;55469;48.934;12.050;2023-07-20T15:37:13;26.80;49.10
68480;DHT22;55469;48.934;12.050;2023-07-20T15:39:39;26.90;49.50
68480;DHT22;55469;48.934;12.050;2023-07-20T15:42:05;26.80;50.10
68480;DHT22;55469;48.934;12.050;2023-07-20T15:44:31;26.90;49.10
68480;DHT22;55469;48.934;12.050;2023-07-20T15:46:57;26.90;48.80
68480;DHT22;55469;48.934;12.050;2023-07-20T15:49:23;27.00;49.40
68480;DHT22;55469;48.934;12.050;2023-07-20T15:51:53;27.00;48.90
68480;DHT22;55469;48.934;12.050;2023-07-20T15:54:20;27.00;48.30
68480;DHT22;55469;48.934;12.050;2023-07-20T15:56:46;27.10;48.40
68480;DHT22;55469;48.934;12.050;2023-07-20T15:59:14;27.10;48.20
68480;DHT22;55469;48.934;12.050;2023-07-20T16:01:41;27.20;48.40